Data for 06/21/2016

Time Sea-Level Adjusted Pressure Absolute Pressure Temperature Relative Humidity Dew Point   
(mb) (inHg) (mb) (inHg) (C) (F) (%) (C) (F)
00:05 1019 30.09 848 25.04 19.6 67.2 32 2.5 36.6
00:10 1019 30.09 848 25.04 19.4 67 33 2.7 36.9
00:15 1019 30.09 848 25.04 19.4 66.9 33 2.7 36.9
00:20 1019 30.09 848 25.04 19.4 66.8 33 3 37.4
00:25 1019 30.09 848 25.04 19.2 66.5 33 2.9 37.1
00:30 1019 30.09 848 25.04 19.1 66.4 34 2.9 37.3
00:35 1019 30.09 848 25.04 19 66.2 34 2.9 37.2
00:40 1019 30.09 848 25.04 19 66.2 34 2.9 37.2
00:45 1019 30.09 848 25.04 18.9 66 34 2.9 37.3
00:50 1019 30.09 848 25.04 18.9 66 35 3.4 38.1
00:55 1019 30.09 848 25.04 18.8 65.8 34 2.9 37.1
01:00 1019 30.09 848 25.04 18.9 66 35 3.2 37.7
01:05 1019 30.09 848 25.04 18.6 65.4 36 3.4 38.1
01:10 1019 30.09 848 25.04 18.5 65.3 35 3.1 37.6
01:15 1019 30.09 848 25.04 18.4 65.2 36 3.4 38.2
01:20 1019 30.09 848 25.04 18.5 65.2 36 3.3 37.9
01:25 1019 30.09 848 25.04 18.3 65 36 3.3 38
01:30 1019 30.09 848 25.04 18.5 65.4 36 3.4 38.1
01:35 1019 30.09 848 25.04 18.4 65.1 36 3.3 38
01:40 1019 30.09 848 25.04 18.5 65.2 36 3.2 37.8
01:45 1019 30.09 848 25.04 18.5 65.3 36 3.3 38
01:50 1019 30.09 848 25.04 18.3 65 36 3.1 37.6
01:55 1019 30.09 848 25.04 18.4 65.2 36 3.3 38
02:00 1019 30.09 848 25.04 18.2 64.8 37 3.5 38.2
02:05 1019 30.09 848 25.04 18.1 64.5 37 3.2 37.7
02:10 1019 30.09 848 25.04 18.1 64.6 37 3.5 38.3
02:15 1019 30.09 848 25.04 17.9 64.2 38 3.5 38.3
02:20 1019 30.09 848 25.04 17.6 63.6 39 3.7 38.6
02:25 1019 30.09 848 25.04 17.1 62.8 41 3.7 38.7
02:30 1019 30.09 848 25.04 16.8 62.2 42 3.8 38.8
02:35 1019 30.09 848 25.04 16.6 61.9 42 3.7 38.6
02:40 1019 30.09 848 25.04 16.7 62.1 41 3.6 38.5
02:45 1019 30.09 848 25.04 17 62.5 40 3.4 38.2
02:50 1019 30.09 848 25.04 17.1 62.7 40 3.6 38.5
02:55 1019 30.09 848 25.04 17 62.6 40 3.5 38.3
03:00 1019 30.09 848 25.04 16.9 62.4 42 4.2 39.5
03:05 1019 30.09 848 25.04 16.9 62.3 40 3.3 37.9
03:10 1019 30.09 848 25.04 17 62.5 41 3.8 38.8
03:15 1019 30.09 848 25.04 16.7 62.1 41 3.5 38.3
03:20 1019 30.09 848 25.04 16.7 62 40 3.2 37.8
03:25 1019 30.09 848 25.04 16.4 61.6 43 3.8 38.9
03:30 1019 30.09 848 25.04 16.1 60.9 43 3.7 38.6
03:35 1019 30.09 848 25.04 15.8 60.5 44 3.7 38.6
03:40 1019 30.09 848 25.04 15.7 60.2 44 3.5 38.4
03:45 1018 30.06 848 25.04 15.7 60.2 43 3.3 37.9
03:50 1018 30.06 848 25.04 15.9 60.7 42 3 37.5
03:55 1018 30.06 848 25.04 16.1 61 41 3 37.4
04:00 1018 30.06 847 25.01 15.9 60.5 41 2.9 37.1
04:05 1018 30.06 847 25.01 15.7 60.2 42 2.8 37
04:10 1018 30.06 847 25.01 15.6 60 41 2.4 36.4
04:15 1018 30.06 847 25.01 15.8 60.4 40 2.3 36.1
04:20 1018 30.06 847 25.01 15.9 60.7 41 2.6 36.8
04:25 1018 30.06 847 25.01 15.9 60.6 40 2.5 36.5
04:30 1018 30.06 847 25.01 16.2 61.2 38 2.1 35.9
04:35 1018 30.06 847 25.01 16.3 61.3 40 2.7 36.8
04:40 1018 30.06 847 25.01 15.8 60.4 41 2.6 36.7
04:45 1018 30.06 847 25.01 15.5 59.9 41 2.4 36.4
04:50 1018 30.06 847 25.01 15.5 59.8 40 2 35.5
04:55 1018 30.06 847 25.01 16.4 61.4 38 2 35.5
05:00 1018 30.06 847 25.01 16.5 61.6 40 3 37.3
05:05 1018 30.06 847 25.01 16 60.8 39 2.1 35.9
05:10 1018 30.06 847 25.01 16.1 61.1 39 2.2 35.9
05:15 1018 30.06 847 25.01 16 60.8 40 2.7 36.8
05:20 1018 30.06 847 25.01 15.6 60.1 42 2.8 37
05:25 1018 30.06 847 25.01 15.8 60.4 40 2.2 36
05:30 1018 30.06 847 25.01 16.2 61.1 41 3.1 37.6
05:35 1018 30.06 847 25.01 16.5 61.6 44 4.1 39.5
05:40 1018 30.06 847 25.01 16.3 61.3 42 3.4 38
05:45 1018 30.06 847 25.01 16.1 61 41 2.9 37.2
05:50 1018 30.06 847 25.01 16.1 60.9 43 3.5 38.4
05:55 1018 30.06 847 25.01 15.9 60.6 43 3.4 38.1
06:00 1018 30.06 847 25.01 16.2 61.1 43 3.8 38.8
06:05 1018 30.06 848 25.04 16.6 61.8 43 4.1 39.4
06:10 1018 30.06 848 25.04 16.7 62.1 43 4.1 39.3
06:15 1018 30.06 848 25.04 16.8 62.2 44 4.6 40.3
06:20 1018 30.06 848 25.04 17.1 62.7 44 4.7 40.5
06:25 1018 30.06 848 25.04 17.4 63.2 40 3.7 38.6
06:30 1018 30.06 848 25.04 17.7 63.9 41 4.6 40.3
06:35 1018 30.06 848 25.04 18.4 65 43 5.7 42.2
06:40 1018 30.06 848 25.04 18.6 65.5 38 4.3 39.8
06:45 1018 30.06 848 25.04 18.7 65.7 37 3.8 38.9
06:50 1018 30.06 848 25.04 18.8 65.9 35 3.3 37.9
06:55 1018 30.06 848 25.04 19.1 66.3 35 3.6 38.4
07:00 1019 30.09 848 25.04 18.9 66.1 37 4 39.3
07:05 1019 30.09 848 25.04 19.2 66.5 37 4.2 39.6
07:10 1019 30.09 848 25.04 19.5 67.2 35 3.9 39
07:15 1019 30.09 848 25.04 19.7 67.4 35 4 39.3
07:20 1019 30.09 848 25.04 20 68 34 3.8 38.9
07:25 1019 30.09 848 25.04 20.2 68.3 38 5.7 42.3
07:30 1019 30.09 848 25.04 19.7 67.5 40 6 42.8
07:35 1019 30.09 848 25.04 19.6 67.2 38 5 41
07:40 1019 30.09 848 25.04 19.8 67.6 38 5.4 41.7
07:45 1019 30.09 848 25.04 20 68 37 5.1 41.1
07:50 1019 30.09 848 25.04 20.7 69.2 36 5.1 41.1
07:55 1019 30.09 848 25.04 20.4 68.7 40 6.6 43.8
08:00 1019 30.09 848 25.04 19.5 67.1 40 5.7 42.2
08:05 1019 30.09 848 25.04 19.5 67.1 41 6.1 43
08:10 1019 30.09 848 25.04 20.6 69.1 33 3.8 38.8
08:15 1019 30.09 848 25.04 21.7 71 33 4.8 40.6
08:20 1019 30.09 848 25.04 21.5 70.8 34 5.2 41.3
08:25 1019 30.09 848 25.04 21.1 70.1 35 5.3 41.5
08:30 1019 30.09 848 25.04 20.9 69.6 35 5 41.1
08:35 1019 30.09 848 25.04 21.4 70.5 33 4.6 40.4
08:40 1019 30.09 848 25.04 21.8 71.2 34 5.3 41.5
08:45 1019 30.09 848 25.04 21.8 71.2 35 5.7 42.2
08:50 1019 30.09 848 25.04 21.2 70.2 34 4.8 40.7
08:55 1019 30.09 848 25.04 21.7 71.1 34 5.4 41.7
09:00 1019 30.09 848 25.04 21.8 71.2 32 4.7 40.5
09:05 1019 30.09 848 25.04 22.4 72.3 33 5.5 42
09:10 1019 30.09 848 25.04 22.3 72.1 32 5.2 41.3
09:15 1019 30.09 848 25.04 22.9 73.1 32 5.5 41.8
09:20 1019 30.09 848 25.04 23.4 74.1 31 5.6 42.1
09:25 1019 30.09 848 25.04 23.4 74.2 32 5.8 42.5
09:30 1018 30.06 848 25.04 23.8 74.8 30 5.2 41.3
09:35 1018 30.06 848 25.04 24.2 75.6 29 5.1 41.2
09:40 1018 30.06 848 25.04 24.3 75.8 29 5.4 41.6
09:45 1018 30.06 848 25.04 24.5 76 28 5 41.1
09:50 1018 30.06 848 25.04 24.3 75.8 27 4.4 39.9
09:55 1018 30.06 848 25.04 25 77 25 3.6 38.5
10:00 1018 30.06 848 25.04 24.7 76.4 26 4.3 39.7
10:05 1018 30.06 848 25.04 24.3 75.8 26 4.1 39.3
10:10 1018 30.06 848 25.04 24.8 76.7 26 4.3 39.8
10:15 1018 30.06 847 25.01 25 77 25 4.1 39.4
10:20 1018 30.06 847 25.01 24.9 76.7 26 4.2 39.5
10:25 1018 30.06 847 25.01 25.2 77.3 27 5.1 41.2
10:30 1018 30.06 847 25.01 25.3 77.6 27 5 41
10:35 1018 30.06 848 25.04 25 77 25 4 39.2
10:40 1018 30.06 847 25.01 25.2 77.3 26 4.6 40.3
10:45 1018 30.06 847 25.01 25.5 77.9 26 4.7 40.5
10:50 1018 30.06 847 25.01 25.7 78.3 27 5.4 41.7
10:55 1018 30.06 847 25.01 25.6 78.1 26 5.2 41.3
11:00 1018 30.06 847 25.01 26.2 79.1 26 5.3 41.6
11:05 1018 30.06 847 25.01 26.2 79.2 27 6 42.9
11:10 1018 30.06 847 25.01 26.2 79.2 24 4.5 40
11:15 1018 30.06 847 25.01 26.1 79 24 4.5 40
11:20 1018 30.06 847 25.01 26.8 80.2 22 3.9 39
11:25 1018 30.06 847 25.01 27.4 81.4 22 4.1 39.3
11:30 1018 30.06 847 25.01 27.1 80.8 22 4.1 39.4
11:35 1018 30.06 847 25.01 26.6 79.8 23 3.8 38.8
11:40 1018 30.06 847 25.01 26.2 79.2 22 3.3 37.9
11:45 1018 30.06 847 25.01 26.1 79 23 3.4 38.2
11:50 1018 30.06 847 25.01 26.6 79.8 22 3.5 38.4
11:55 1017 30.03 847 25.01 27 80.6 23 4.5 40.1
12:00 1018 30.06 847 25.01 27.3 81.1 22 4.2 39.6
12:05 1018 30.06 847 25.01 27.5 81.4 23 5 41.1
12:10 1017 30.03 847 25.01 27.3 81.1 24 5.1 41.1
12:15 1018 30.06 847 25.01 27.1 80.9 22 3.7 38.6
12:20 1017 30.03 847 25.01 27.5 81.4 13 -3.4 25.9
12:25 1017 30.03 847 25.01 28.3 83 12 -3.1 26.4
12:30 1017 30.03 847 25.01 28.8 83.8 12 -3 26.5
12:35 1017 30.03 847 25.01 28.8 83.8 11 -4 24.8
12:40 1017 30.03 846 24.98 28.4 83.1 11 -4.2 24.4
12:45 1017 30.03 847 25.01 28.4 83.1 12 -3.8 25.1
12:50 1017 30.03 846 24.98 28.7 83.6 12 -3.7 25.4
12:55 1017 30.03 846 24.98 28.8 83.8 11 -4.4 24
13:00 1017 30.03 846 24.98 28.7 83.6 11 -4.3 24.3
13:05 1017 30.03 846 24.98 28.7 83.7 11 -4.4 24
13:10 1017 30.03 846 24.98 28.6 83.5 12 -3.6 25.5
13:15 1017 30.03 846 24.98 28.9 83.9 11 -4.5 23.9
13:20 1017 30.03 846 24.98 28.6 83.5 11 -4.1 24.7
13:25 1017 30.03 846 24.98 28.7 83.6 11 -4 24.7
13:30 1017 30.03 846 24.98 28.5 83.4 12 -3.4 26
13:35 1017 30.03 846 24.98 28.6 83.4 11 -4.7 23.6
13:40 1017 30.03 846 24.98 28.3 82.9 11 -4.1 24.6
13:45 1017 30.03 846 24.98 28.5 83.4 12 -3.8 25.2
13:50 1017 30.03 846 24.98 28.7 83.6 11 -4.4 24
13:55 1017 30.03 846 24.98 28.6 83.5 11 -4.3 24.2
14:00 1017 30.03 846 24.98 28.8 83.9 12 -3.6 25.4
14:05 1017 30.03 846 24.98 28.7 83.7 11 -4.2 24.4
14:10 1017 30.03 846 24.98 28.8 83.8 11 -4.2 24.5
14:15 1017 30.03 846 24.98 28.7 83.7 10 -5.1 22.8
14:20 1017 30.03 846 24.98 28.7 83.7 11 -4.6 23.7
14:25 1017 30.03 846 24.98 28.6 83.6 12 -3.5 25.7
14:30 1017 30.03 846 24.98 28.9 84 11 -4.1 24.7
14:35 1017 30.03 846 24.98 28.6 83.5 11 -4 24.9
14:40 1017 30.03 846 24.98 28.8 83.8 11 -4 24.7
14:45 1017 30.03 846 24.98 28.8 83.8 10 -5 23.1
14:50 1017 30.03 846 24.98 28.7 83.7 10 -5.1 22.8
14:55 1017 30.03 846 24.98 28.7 83.7 11 -4.5 23.9
15:00 1017 30.03 846 24.98 28.6 83.4 11 -4.9 23.2
15:05 1017 30.03 846 24.98 28.5 83.2 11 -5.1 22.9
15:10 1017 30.03 846 24.98 28.5 83.4 12 -3.9 25
15:15 1017 30.03 847 25.01 28.7 83.7 11 -4.6 23.7
15:20 1017 30.03 847 25.01 28.8 83.8 12 -3.5 25.7
15:25 1017 30.03 847 25.01 28.3 82.9 11 -4.3 24.2
15:30 1017 30.03 847 25.01 27.9 82.2 11 -4.9 23.2
15:35 1017 30.03 847 25.01 27.9 82.3 12 -3.6 25.5
15:40 1017 30.03 847 25.01 28 82.5 12 -4.3 24.3
15:45 1017 30.03 847 25.01 27.7 81.9 12 -3.7 25.3
15:50 1017 30.03 847 25.01 28 82.3 12 -4.2 24.4
15:55 1017 30.03 847 25.01 28 82.3 12 -3.9 25
16:00 1017 30.03 847 25.01 27.9 82.2 12 -3.7 25.3
16:05 1018 30.06 847 25.01 27.7 81.9 12 -4.1 24.7
16:10 1018 30.06 847 25.01 27.4 81.3 12 -3.7 25.3
16:15 1018 30.06 847 25.01 27.4 81.3 13 -3.6 25.4
16:20 1018 30.06 847 25.01 27.6 81.6 12 -4.5 23.9
16:25 1018 30.06 847 25.01 27.2 81 12 -4.7 23.5
16:30 1018 30.06 847 25.01 26.7 80 12 -4.9 23.2
16:35 1018 30.06 847 25.01 26.7 80 13 -4.1 24.6
16:40 1018 30.06 847 25.01 26.9 80.4 12 -5 23
16:45 1018 30.06 847 25.01 26.6 79.8 12 -5.3 22.4
16:50 1018 30.06 847 25.01 26.5 79.6 11 -5.7 21.7
16:55 1018 30.06 847 25.01 26.2 79.2 12 -5.7 21.7
17:00 1018 30.06 847 25.01 26.1 78.9 11 -5.9 21.3
17:05 1018 30.06 847 25.01 26.1 78.9 12 -4.9 23.1
17:10 1018 30.06 848 25.04 26.2 79.1 12 -5.2 22.7
17:15 1018 30.06 847 25.01 25.9 78.6 12 -5.3 22.4
17:20 1018 30.06 847 25.01 25.7 78.2 12 -5.6 21.9
17:25 1018 30.06 848 25.04 25.5 77.9 12 -5.6 21.8
17:30 1019 30.09 848 25.04 25.6 78.1 12 -5.2 22.7
17:35 1019 30.09 848 25.04 25.6 78 12 -5.4 22.2
17:40 1019 30.09 848 25.04 25.2 77.4 13 -5.4 22.4
17:45 1019 30.09 848 25.04 25.1 77.2 12 -5.9 21.3
17:50 1019 30.09 848 25.04 25.1 77.2 13 -5.5 22.1
17:55 1019 30.09 848 25.04 25 77 13 -5.4 22.2
18:00 1019 30.09 848 25.04 24.9 76.8 12 -5.9 21.4
18:05 1019 30.09 848 25.04 24.8 76.6 13 -5.4 22.3
18:10 1019 30.09 848 25.04 24.8 76.6 12 -6 21.2
18:15 1019 30.09 849 25.07 24.5 76.1 12 -6.4 20.5
18:20 1019 30.09 849 25.07 24.6 76.2 12 -6.8 19.8
18:25 1020 30.12 849 25.07 24.5 76 12 -6.9 19.7
18:30 1020 30.12 849 25.07 24.3 75.7 12 -7 19.3
18:35 1020 30.12 849 25.07 23.8 74.9 13 -5.7 21.7
18:40 1020 30.12 849 25.07 23.5 74.2 15 -4.9 23.2
18:45 1020 30.12 849 25.07 23.2 73.7 15 -4.7 23.5
18:50 1020 30.12 849 25.07 22.9 73.3 15 -4.8 23.4
18:55 1020 30.12 849 25.07 22.9 73.1 15 -4.8 23.3
19:00 1020 30.12 849 25.07 22.8 73 15 -5.1 22.8
19:05 1020 30.12 849 25.07 22.6 72.6 15 -4.9 23.2
19:10 1020 30.12 849 25.07 22.4 72.4 16 -4.1 24.5
19:15 1020 30.12 850 25.1 22.3 72.1 17 -3.6 25.5
19:20 1020 30.12 850 25.1 22.1 71.8 18 -3.3 26.1
19:25 1020 30.12 850 25.1 21.8 71.3 18 -3.2 26.3
19:30 1020 30.12 850 25.1 21.4 70.6 20 -2.5 27.5
19:35 1021 30.15 850 25.1 21.4 70.5 20 -2.4 27.7
19:40 1021 30.15 850 25.1 20.9 69.6 20 -2.4 27.7
19:45 1021 30.15 850 25.1 20.5 68.9 22 -2.1 28.3
19:50 1021 30.15 850 25.1 20.3 68.6 22 -1.8 28.7
19:55 1021 30.15 850 25.1 20.2 68.3 22 -2 28.4
20:00 1021 30.15 850 25.1 20.1 68.2 22 -2.4 27.7
20:05 1021 30.15 850 25.1 20 67.9 22 -2.4 27.6
20:10 1021 30.15 850 25.1 19.8 67.6 22 -2.5 27.5
20:15 1021 30.15 850 25.1 19.6 67.2 22 -2.4 27.7
20:20 1021 30.15 850 25.1 19.4 67 23 -1.9 28.5
20:25 1021 30.15 850 25.1 19.3 66.7 23 -2.2 28.1
20:30 1021 30.15 850 25.1 19.1 66.4 23 -2.4 27.7
20:35 1021 30.15 850 25.1 18.9 66.1 23 -2.3 27.8
20:40 1021 30.15 850 25.1 18.7 65.7 24 -1.9 28.5
20:45 1021 30.15 850 25.1 18.6 65.4 24 -2.1 28.2
20:50 1021 30.15 851 25.13 18.4 65.1 25 -2.1 28.3
20:55 1021 30.15 851 25.13 18.2 64.7 25 -2.1 28.2
21:00 1022 30.18 851 25.13 18 64.3 25 -2.1 28.2
21:05 1022 30.18 851 25.13 17.8 64 25 -2.1 28.2
21:10 1022 30.18 851 25.13 17.6 63.7 25 -2.3 27.9
21:15 1022 30.18 851 25.13 17.5 63.4 26 -2.1 28.1
21:20 1022 30.18 851 25.13 17.3 63.1 26 -2.1 28.2
21:25 1022 30.18 851 25.13 17.2 63 26 -2.4 27.7
21:30 1022 30.18 851 25.13 17.3 63.1 25 -2.6 27.4
21:35 1022 30.18 851 25.13 17.3 63.2 25 -2.6 27.4
21:40 1022 30.18 851 25.13 17.3 63.2 25 -2.5 27.5
21:45 1022 30.18 851 25.13 17.2 63 26 -2.4 27.6
21:50 1022 30.18 851 25.13 17.1 62.9 26 -2.5 27.5
21:55 1022 30.18 851 25.13 17.2 62.9 25 -3 26.7
22:00 1022 30.18 851 25.13 17.2 62.9 25 -2.8 26.9
22:05 1022 30.18 851 25.13 17.1 62.8 26 -2.3 27.9
22:10 1022 30.18 851 25.13 17 62.7 25 -2.8 26.9
22:15 1022 30.18 851 25.13 17.1 62.8 25 -3.2 26.3
22:20 1022 30.18 851 25.13 17.1 62.7 25 -3 26.6
22:25 1022 30.18 851 25.13 16.8 62.2 29 -1.1 30
22:30 1022 30.18 851 25.13 15.1 59.2 31 -1.6 29.1
22:35 1022 30.18 851 25.13 14.8 58.6 32 -1.5 29.3
22:40 1022 30.18 851 25.13 14.3 57.8 35 -1 30.2
22:45 1022 30.18 851 25.13 14 57.1 36 -0.8 30.5
22:50 1022 30.18 851 25.13 13.8 56.9 36 -1 30.2
22:55 1022 30.18 851 25.13 13.6 56.4 37 -0.6 30.9
23:00 1022 30.18 851 25.13 13.4 56.2 38 -0.7 30.8
23:05 1022 30.18 851 25.13 13.2 55.7 38 -0.7 30.8
23:10 1022 30.18 851 25.13 13.1 55.6 39 -0.5 31.1
23:15 1022 30.18 851 25.13 12.8 55.1 39 -0.7 30.7
23:20 1022 30.18 851 25.13 12.8 55.1 39 -0.8 30.6
23:25 1022 30.18 852 25.16 12.8 55.1 39 -0.7 30.8
23:30 1022 30.18 852 25.16 13 55.3 38 -0.8 30.5
23:35 1022 30.18 851 25.13 12.8 55.1 41 -0.1 31.8
23:40 1022 30.18 851 25.13 12.1 53.9 40 -0.9 30.4
23:45 1022 30.18 851 25.13 12.3 54.2 40 -1 30.2
23:50 1022 30.18 851 25.13 12.3 54.2 42 -0 31.9
23:55 1022 30.18 851 25.13 11.5 52.7 45 0.1 32.2
24:00 1022 30.18 851 25.13 11.5 52.7 42 -1 30.2